createdAt,value
2022-11-19T00:01:43.227Z,5.40
2022-11-19T00:06:46.575Z,5.20
2022-11-19T00:12:07.145Z,5.40
2022-11-19T00:17:12.182Z,5.10
2022-11-19T00:22:15.446Z,5.30
2022-11-19T00:27:18.727Z,5.20
2022-11-19T00:32:23.422Z,5.10
2022-11-19T00:37:26.812Z,4.90
2022-11-19T00:42:30.299Z,4.70
2022-11-19T00:47:35.007Z,4.60
2022-11-19T00:52:38.265Z,4.60
2022-11-19T00:57:41.554Z,4.50
2022-11-19T01:02:46.204Z,4.40
2022-11-19T01:07:49.479Z,4.70
2022-11-19T01:13:10.210Z,4.80
2022-11-19T01:18:14.895Z,4.80
2022-11-19T01:23:18.465Z,4.70
2022-11-19T01:28:21.800Z,4.60
2022-11-19T01:33:26.664Z,4.40
2022-11-19T01:38:30.921Z,4.40
2022-11-19T01:43:46.074Z,4.20
2022-11-19T01:48:55.168Z,4.10
2022-11-19T01:54:01.419Z,4.00
2022-11-19T01:59:08.287Z,4.00
2022-11-19T02:04:15.010Z,4.00
2022-11-19T02:09:18.571Z,3.90
2022-11-19T02:14:54.503Z,3.00
2022-11-19T02:20:49.935Z,3.90
2022-11-19T02:26:00.828Z,3.70
2022-11-19T02:31:11.432Z,3.50
2022-11-19T02:36:22.831Z,3.50
2022-11-19T02:41:37.481Z,3.30
2022-11-19T02:46:43.430Z,3.10
2022-11-19T02:51:49.053Z,2.80
2022-11-19T02:56:54.263Z,3.80
2022-11-19T03:02:17.776Z,3.00
2022-11-19T03:07:22.587Z,3.00
2022-11-19T03:12:33.948Z,2.50
2022-11-19T03:17:51.853Z,2.50
2022-11-19T03:22:59.467Z,2.50
2022-11-19T03:28:05.982Z,2.50
2022-11-19T03:38:20.577Z,2.30
2022-11-19T03:43:28.461Z,2.20
2022-11-19T03:48:34.043Z,2.40
2022-11-19T03:53:37.329Z,2.20
2022-11-19T03:58:42.332Z,2.60
2022-11-19T04:04:07.084Z,2.20
2022-11-19T04:09:10.421Z,2.10
2022-11-19T04:14:13.758Z,2.10
2022-11-19T04:19:19.029Z,2.00
2022-11-19T04:24:22.596Z,2.30
2022-11-19T04:29:25.879Z,2.00
2022-11-19T04:34:30.756Z,2.00
2022-11-19T04:39:34.034Z,2.00
2022-11-19T04:44:37.315Z,1.90
2022-11-19T04:49:41.955Z,2.30
2022-11-19T04:54:45.240Z,1.70
2022-11-19T04:59:48.506Z,1.90
2022-11-19T05:04:53.213Z,2.10
2022-11-19T05:09:56.466Z,1.90
2022-11-19T05:14:59.714Z,1.80
2022-11-19T05:20:04.748Z,2.00
2022-11-19T05:25:08.638Z,1.90
2022-11-19T05:30:13.080Z,1.90
2022-11-19T05:35:18.018Z,1.00
2022-11-19T05:40:21.541Z,1.70
2022-11-19T05:45:24.947Z,1.50
2022-11-19T05:50:29.761Z,1.30
2022-11-19T05:55:33.968Z,1.20
2022-11-19T06:00:37.399Z,1.40
2022-11-19T06:05:42.252Z,1.60
2022-11-19T06:10:45.681Z,1.80
2022-11-19T06:15:49.181Z,1.70
2022-11-19T06:20:53.935Z,1.60
2022-11-19T06:25:57.853Z,1.40
2022-11-19T06:31:01.236Z,1.40
2022-11-19T06:36:06.357Z,1.30
2022-11-19T06:41:10.036Z,1.40
2022-11-19T06:46:14.204Z,1.40
2022-11-19T06:51:18.825Z,2.00
2022-11-19T06:56:22.111Z,1.50
2022-11-19T07:06:30.537Z,1.50
2022-11-19T07:11:33.790Z,1.50
2022-11-19T07:16:38.450Z,1.50
2022-11-19T07:21:43.061Z,1.70
2022-11-19T07:26:46.349Z,1.80
2022-11-19T07:31:50.710Z,1.70
2022-11-19T07:36:55.525Z,1.80
2022-11-19T07:42:16.047Z,1.60
2022-11-19T07:47:21.991Z,1.80
2022-11-19T07:52:26.684Z,1.90
2022-11-19T07:57:30.606Z,2.00
2022-11-19T08:02:34.009Z,2.10
2022-11-19T08:07:40.161Z,2.30
2022-11-19T08:13:03.145Z,2.60
2022-11-19T08:18:16.138Z,2.90
2022-11-19T08:23:20.848Z,2.90
2022-11-19T08:28:24.156Z,3.00
2022-11-19T08:33:27.404Z,2.60
2022-11-19T08:38:37.205Z,2.50
2022-11-19T08:43:42.193Z,2.70
2022-11-19T08:48:45.522Z,2.60
2022-11-19T08:53:52.978Z,2.50
2022-11-19T08:58:59.946Z,2.80
2022-11-19T09:04:06.243Z,2.90
2022-11-19T09:09:10.924Z,2.80
2022-11-19T09:14:14.213Z,2.80
2022-11-19T09:19:17.558Z,2.90
2022-11-19T09:24:22.542Z,2.80
2022-11-19T09:29:25.923Z,2.70
2022-11-19T09:34:29.410Z,2.80
2022-11-19T09:39:34.142Z,2.40
2022-11-19T09:44:54.794Z,2.90
2022-11-19T09:50:06.654Z,3.10
2022-11-19T09:55:17.863Z,3.30
2022-11-19T10:00:23.710Z,3.50
2022-11-19T10:05:38.020Z,3.20
2022-11-19T10:10:46.034Z,3.00
2022-11-19T10:16:07.187Z,3.10
2022-11-19T10:21:19.067Z,3.10
2022-11-19T10:26:29.581Z,2.70
2022-11-19T10:31:37.879Z,3.00
2022-11-19T10:36:44.335Z,3.10
2022-11-19T10:41:54.464Z,3.30
2022-11-19T10:46:57.846Z,3.00
2022-11-19T10:52:01.238Z,2.90
2022-11-19T10:57:08.609Z,2.80
2022-11-19T11:02:27.786Z,2.90
2022-11-19T11:07:53.894Z,2.70
2022-11-19T11:13:23.631Z,2.70
2022-11-19T11:18:30.630Z,2.70
2022-11-19T11:23:34.537Z,2.80
2022-11-19T11:28:55.793Z,2.80
2022-11-19T11:34:02.326Z,2.70
2022-11-19T11:39:07.062Z,2.50
2022-11-19T11:44:21.075Z,2.40
2022-11-19T11:49:28.572Z,2.80
2022-11-19T11:54:32.372Z,3.70
2022-11-19T11:59:38.648Z,2.80
2022-11-19T12:04:42.324Z,2.80
2022-11-19T12:09:53.819Z,2.90
2022-11-19T12:15:05.593Z,3.30
2022-11-19T12:20:22.565Z,2.50
2022-11-19T12:25:32.267Z,2.40
2022-11-19T12:30:45.422Z,2.60
2022-11-19T12:35:56.245Z,2.60
2022-11-19T12:41:13.138Z,2.70
2022-11-19T12:46:26.842Z,2.80
2022-11-19T12:51:45.079Z,2.80
2022-11-19T12:56:59.021Z,2.90
2022-11-19T13:02:09.141Z,3.00
2022-11-19T13:07:17.163Z,3.20
2022-11-19T13:12:24.241Z,2.80
2022-11-19T13:17:32.451Z,2.80
2022-11-19T13:22:38.832Z,2.90
2022-11-19T13:27:42.401Z,2.80
2022-11-19T13:32:52.561Z,3.10
2022-11-19T13:38:02.172Z,2.80
2022-11-19T13:43:38.507Z,2.70
2022-11-19T13:48:47.014Z,2.50
2022-11-19T13:53:50.561Z,2.30
2022-11-19T13:58:56.884Z,2.40
2022-11-19T14:04:22.040Z,2.40
2022-11-19T14:09:33.441Z,2.40
2022-11-19T14:15:08.616Z,2.50
2022-11-19T14:20:53.466Z,2.00
2022-11-19T14:26:13.979Z,2.90
2022-11-19T14:31:18.676Z,3.50
2022-11-19T14:36:27.644Z,2.50
2022-11-19T14:41:33.628Z,2.40
2022-11-19T14:46:38.977Z,2.40
2022-11-19T14:51:43.750Z,2.40
2022-11-19T14:56:49.717Z,2.60
2022-11-19T15:01:58.359Z,2.50
2022-11-19T15:07:09.984Z,2.40
2022-11-19T15:12:13.340Z,2.30
2022-11-19T15:17:16.888Z,2.30
2022-11-19T15:22:40.853Z,2.10
2022-11-19T15:27:56.680Z,2.20
2022-11-19T15:33:39.634Z,2.10
2022-11-19T15:38:49.256Z,2.30
2022-11-19T15:43:57.117Z,2.40
2022-11-19T15:49:07.634Z,-0.20
2022-11-19T15:54:13.680Z,2.50
2022-11-19T15:59:19.892Z,2.10
2022-11-19T16:04:23.944Z,2.10
2022-11-19T16:09:29.718Z,2.20
2022-11-19T16:14:50.151Z,2.10
2022-11-19T16:20:06.942Z,2.30
2022-11-19T16:25:15.432Z,2.00
2022-11-19T16:30:20.593Z,2.00
2022-11-19T16:35:25.977Z,2.30
2022-11-19T16:45:56.841Z,2.10
2022-11-19T16:51:25.707Z,1.90
2022-11-19T16:56:36.026Z,2.10
2022-11-19T17:01:39.318Z,1.80
2022-11-19T17:06:44.195Z,2.10
2022-11-19T17:12:09.952Z,2.10
2022-11-19T17:17:40.512Z,2.30
2022-11-19T17:22:44.355Z,1.70
2022-11-19T17:27:52.201Z,1.70
2022-11-19T17:32:58.744Z,2.00
2022-11-19T17:38:09.869Z,1.70
2022-11-19T17:43:33.557Z,1.70
2022-11-19T17:48:39.279Z,1.70
2022-11-19T17:53:42.917Z,1.60
2022-11-19T17:58:47.715Z,1.60
2022-11-19T18:03:51.004Z,1.60
2022-11-19T18:08:54.288Z,1.50
2022-11-19T18:14:02.335Z,1.90
2022-11-19T18:19:12.190Z,1.80
2022-11-19T18:24:15.574Z,1.70
2022-11-19T18:29:20.376Z,1.70
2022-11-19T18:34:25.442Z,1.70
2022-11-19T18:39:28.953Z,1.60
2022-11-19T18:44:38.429Z,1.60
2022-11-19T18:49:42.418Z,1.90
2022-11-19T18:54:46.160Z,1.30
2022-11-19T18:59:50.832Z,1.40
2022-11-19T19:04:54.146Z,1.70
2022-11-19T19:09:58.211Z,4.90
2022-11-19T19:15:02.963Z,1.80
2022-11-19T19:20:06.881Z,5.70
2022-11-19T19:25:10.827Z,1.70
2022-11-19T19:30:17.197Z,1.50
2022-11-19T19:35:20.492Z,6.00
2022-11-19T19:40:23.945Z,1.50
2022-11-19T19:45:28.555Z,1.50
2022-11-19T19:50:31.795Z,1.60
2022-11-19T19:55:35.075Z,1.50
2022-11-19T20:00:39.751Z,1.50
2022-11-19T20:05:49.823Z,1.50
2022-11-19T20:10:53.184Z,1.40
2022-11-19T20:15:58.915Z,1.40
2022-11-19T20:21:02.867Z,1.40
2022-11-19T20:26:08.755Z,1.50
2022-11-19T20:31:15.126Z,1.40
2022-11-19T20:36:18.630Z,-1.50
2022-11-19T20:41:40.696Z,1.60
2022-11-19T20:46:45.766Z,1.60
2022-11-19T20:51:49.660Z,1.60
2022-11-19T20:56:53.735Z,1.60
2022-11-19T21:01:59.091Z,1.60
2022-11-19T21:07:02.564Z,1.50
2022-11-19T21:12:06.208Z,1.40
2022-11-19T21:17:10.937Z,1.60
2022-11-19T21:22:14.312Z,1.80
2022-11-19T21:27:17.595Z,1.50
2022-11-19T21:32:22.237Z,1.40
2022-11-19T21:37:25.517Z,1.40
2022-11-19T21:42:28.752Z,1.50
2022-11-19T21:47:33.395Z,1.30
2022-11-19T21:52:36.655Z,1.40
2022-11-19T21:57:39.925Z,1.50
2022-11-19T22:02:44.588Z,1.60
2022-11-19T22:07:48.093Z,1.40
2022-11-19T22:12:51.398Z,1.50
2022-11-19T22:17:56.422Z,1.30
2022-11-19T22:22:59.715Z,1.30
2022-11-19T22:28:03.357Z,1.30
2022-11-19T22:33:08.021Z,1.40
2022-11-19T22:38:11.311Z,2.00
2022-11-19T22:43:16.217Z,1.40
2022-11-19T22:48:22.660Z,1.50
2022-11-19T22:53:26.263Z,1.20
2022-11-19T22:58:29.635Z,1.50
2022-11-19T23:03:34.321Z,1.90
2022-11-19T23:08:38.345Z,1.80
2022-11-19T23:13:43.939Z,1.40
2022-11-19T23:18:50.372Z,2.10
2022-11-19T23:23:53.947Z,1.30
2022-11-19T23:28:57.844Z,1.30
2022-11-19T23:34:02.616Z,1.40
2022-11-19T23:39:08.212Z,1.30
2022-11-19T23:44:11.475Z,1.70
2022-11-19T23:49:16.175Z,1.40
2022-11-19T23:54:19.478Z,1.20
2022-11-19T23:59:25.579Z,1.10
